sensor_id;sensor_type;location;lat;lon;timestamp;P1;durP1;ratioP1;P2;durP2;ratioP2
59458;SDS011;45269;43.568;22.244;2023-08-21T00:01:41;11.98;;;10.80;;
59458;SDS011;45269;43.568;22.244;2023-08-21T00:04:07;11.57;;;10.57;;
59458;SDS011;45269;43.568;22.244;2023-08-21T00:06:32;11.57;;;10.45;;
59458;SDS011;45269;43.568;22.244;2023-08-21T00:08:58;11.65;;;10.65;;
59458;SDS011;45269;43.568;22.244;2023-08-21T00:11:23;11.15;;;9.77;;
59458;SDS011;45269;43.568;22.244;2023-08-21T00:13:48;10.98;;;9.90;;
59458;SDS011;45269;43.568;22.244;2023-08-21T00:16:14;13.15;;;11.95;;
59458;SDS011;45269;43.568;22.244;2023-08-21T00:18:40;13.75;;;12.38;;
59458;SDS011;45269;43.568;22.244;2023-08-21T00:21:05;11.95;;;10.60;;
59458;SDS011;45269;43.568;22.244;2023-08-21T00:23:31;11.73;;;10.57;;
59458;SDS011;45269;43.568;22.244;2023-08-21T00:25:56;14.10;;;11.30;;
59458;SDS011;45269;43.568;22.244;2023-08-21T00:28:22;12.52;;;11.35;;
59458;SDS011;45269;43.568;22.244;2023-08-21T00:30:47;13.13;;;11.77;;
59458;SDS011;45269;43.568;22.244;2023-08-21T00:33:13;16.23;;;13.05;;
59458;SDS011;45269;43.568;22.244;2023-08-21T00:35:38;13.30;;;11.73;;
59458;SDS011;45269;43.568;22.244;2023-08-21T00:38:03;12.40;;;11.40;;
59458;SDS011;45269;43.568;22.244;2023-08-21T00:40:30;12.25;;;11.07;;
59458;SDS011;45269;43.568;22.244;2023-08-21T00:42:55;13.35;;;12.15;;
59458;SDS011;45269;43.568;22.244;2023-08-21T00:45:21;13.90;;;12.35;;
59458;SDS011;45269;43.568;22.244;2023-08-21T00:47:46;14.93;;;13.45;;
59458;SDS011;45269;43.568;22.244;2023-08-21T00:50:12;12.63;;;11.43;;
59458;SDS011;45269;43.568;22.244;2023-08-21T00:52:38;11.80;;;10.75;;
59458;SDS011;45269;43.568;22.244;2023-08-21T00:55:05;12.27;;;10.98;;
59458;SDS011;45269;43.568;22.244;2023-08-21T00:57:31;12.90;;;11.80;;
59458;SDS011;45269;43.568;22.244;2023-08-21T00:59:56;12.50;;;11.20;;
59458;SDS011;45269;43.568;22.244;2023-08-21T01:02:22;12.30;;;11.20;;
59458;SDS011;45269;43.568;22.244;2023-08-21T01:04:47;13.10;;;11.90;;
59458;SDS011;45269;43.568;22.244;2023-08-21T01:07:13;13.10;;;11.90;;
59458;SDS011;45269;43.568;22.244;2023-08-21T01:17:20;12.88;;;11.82;;
59458;SDS011;45269;43.568;22.244;2023-08-21T01:19:47;11.73;;;10.73;;
59458;SDS011;45269;43.568;22.244;2023-08-21T01:22:13;12.70;;;11.30;;
59458;SDS011;45269;43.568;22.244;2023-08-21T01:24:38;12.65;;;11.55;;
59458;SDS011;45269;43.568;22.244;2023-08-21T01:27:04;12.27;;;10.75;;
59458;SDS011;45269;43.568;22.244;2023-08-21T01:29:29;12.02;;;10.85;;
59458;SDS011;45269;43.568;22.244;2023-08-21T01:34:23;13.57;;;12.27;;
59458;SDS011;45269;43.568;22.244;2023-08-21T01:36:49;14.52;;;11.02;;
59458;SDS011;45269;43.568;22.244;2023-08-21T01:39:14;15.95;;;11.25;;
59458;SDS011;45269;43.568;22.244;2023-08-21T01:41:40;12.40;;;11.15;;
59458;SDS011;45269;43.568;22.244;2023-08-21T01:44:06;11.00;;;9.95;;
59458;SDS011;45269;43.568;22.244;2023-08-21T01:46:31;11.70;;;10.70;;
59458;SDS011;45269;43.568;22.244;2023-08-21T01:48:56;11.18;;;10.27;;
59458;SDS011;45269;43.568;22.244;2023-08-21T01:51:22;11.25;;;10.15;;
59458;SDS011;45269;43.568;22.244;2023-08-21T01:53:47;12.60;;;11.43;;
59458;SDS011;45269;43.568;22.244;2023-08-21T01:56:12;11.57;;;10.63;;
59458;SDS011;45269;43.568;22.244;2023-08-21T01:58:38;11.63;;;10.65;;
59458;SDS011;45269;43.568;22.244;2023-08-21T02:01:03;11.77;;;10.85;;
59458;SDS011;45269;43.568;22.244;2023-08-21T02:03:30;12.07;;;11.07;;
59458;SDS011;45269;43.568;22.244;2023-08-21T02:05:56;12.00;;;10.82;;
59458;SDS011;45269;43.568;22.244;2023-08-21T02:08:25;13.10;;;11.97;;
59458;SDS011;45269;43.568;22.244;2023-08-21T02:10:52;11.80;;;10.70;;
59458;SDS011;45269;43.568;22.244;2023-08-21T02:13:17;11.90;;;10.65;;
59458;SDS011;45269;43.568;22.244;2023-08-21T02:15:43;11.32;;;10.43;;
59458;SDS011;45269;43.568;22.244;2023-08-21T02:18:08;11.43;;;10.52;;
59458;SDS011;45269;43.568;22.244;2023-08-21T02:20:34;11.43;;;10.50;;
59458;SDS011;45269;43.568;22.244;2023-08-21T02:22:59;11.98;;;10.82;;
59458;SDS011;45269;43.568;22.244;2023-08-21T02:25:25;11.80;;;10.80;;
59458;SDS011;45269;43.568;22.244;2023-08-21T02:27:50;10.27;;;9.32;;
59458;SDS011;45269;43.568;22.244;2023-08-21T02:30:16;11.48;;;10.45;;
59458;SDS011;45269;43.568;22.244;2023-08-21T02:32:41;11.63;;;10.52;;
59458;SDS011;45269;43.568;22.244;2023-08-21T02:35:07;11.90;;;10.80;;
59458;SDS011;45269;43.568;22.244;2023-08-21T02:37:33;12.57;;;11.38;;
59458;SDS011;45269;43.568;22.244;2023-08-21T02:39:58;10.25;;;9.45;;
59458;SDS011;45269;43.568;22.244;2023-08-21T02:42:25;11.57;;;10.60;;
59458;SDS011;45269;43.568;22.244;2023-08-21T02:44:50;12.70;;;10.77;;
59458;SDS011;45269;43.568;22.244;2023-08-21T02:47:15;11.98;;;11.05;;
59458;SDS011;45269;43.568;22.244;2023-08-21T02:49:41;13.60;;;11.05;;
59458;SDS011;45269;43.568;22.244;2023-08-21T02:52:06;12.15;;;10.95;;
59458;SDS011;45269;43.568;22.244;2023-08-21T02:54:31;11.90;;;10.52;;
59458;SDS011;45269;43.568;22.244;2023-08-21T02:56:57;10.60;;;9.55;;
59458;SDS011;45269;43.568;22.244;2023-08-21T02:59:22;11.82;;;10.65;;
59458;SDS011;45269;43.568;22.244;2023-08-21T03:01:47;11.43;;;10.32;;
59458;SDS011;45269;43.568;22.244;2023-08-21T03:04:13;11.38;;;10.25;;
59458;SDS011;45269;43.568;22.244;2023-08-21T03:06:38;12.30;;;10.65;;
59458;SDS011;45269;43.568;22.244;2023-08-21T03:09:03;11.02;;;10.10;;
59458;SDS011;45269;43.568;22.244;2023-08-21T03:11:29;12.70;;;11.45;;
59458;SDS011;45269;43.568;22.244;2023-08-21T03:13:54;12.60;;;11.32;;
59458;SDS011;45269;43.568;22.244;2023-08-21T03:16:19;11.70;;;10.50;;
59458;SDS011;45269;43.568;22.244;2023-08-21T03:18:58;12.52;;;11.30;;
59458;SDS011;45269;43.568;22.244;2023-08-21T03:21:24;11.68;;;10.68;;
59458;SDS011;45269;43.568;22.244;2023-08-21T03:23:50;12.68;;;11.05;;
59458;SDS011;45269;43.568;22.244;2023-08-21T03:26:16;14.20;;;11.50;;
59458;SDS011;45269;43.568;22.244;2023-08-21T03:28:41;11.85;;;10.80;;
59458;SDS011;45269;43.568;22.244;2023-08-21T03:31:07;12.88;;;11.68;;
59458;SDS011;45269;43.568;22.244;2023-08-21T03:33:32;12.27;;;11.05;;
59458;SDS011;45269;43.568;22.244;2023-08-21T03:35:57;12.35;;;11.15;;
59458;SDS011;45269;43.568;22.244;2023-08-21T03:38:23;11.25;;;10.27;;
59458;SDS011;45269;43.568;22.244;2023-08-21T03:40:48;13.68;;;11.32;;
59458;SDS011;45269;43.568;22.244;2023-08-21T03:43:13;12.63;;;11.35;;
59458;SDS011;45269;43.568;22.244;2023-08-21T03:45:39;11.98;;;10.88;;
59458;SDS011;45269;43.568;22.244;2023-08-21T03:48:04;11.60;;;10.63;;
59458;SDS011;45269;43.568;22.244;2023-08-21T03:50:30;11.48;;;10.48;;
59458;SDS011;45269;43.568;22.244;2023-08-21T03:52:55;13.18;;;11.77;;
59458;SDS011;45269;43.568;22.244;2023-08-21T03:55:20;12.63;;;11.48;;
59458;SDS011;45269;43.568;22.244;2023-08-21T03:57:46;13.18;;;11.90;;
59458;SDS011;45269;43.568;22.244;2023-08-21T04:00:11;15.27;;;11.82;;
59458;SDS011;45269;43.568;22.244;2023-08-21T04:02:37;12.90;;;11.48;;
59458;SDS011;45269;43.568;22.244;2023-08-21T04:05:02;13.15;;;11.95;;
59458;SDS011;45269;43.568;22.244;2023-08-21T04:07:27;12.13;;;11.05;;
59458;SDS011;45269;43.568;22.244;2023-08-21T04:09:53;13.13;;;11.93;;
59458;SDS011;45269;43.568;22.244;2023-08-21T04:12:18;17.15;;;13.18;;
59458;SDS011;45269;43.568;22.244;2023-08-21T04:14:43;26.45;;;18.10;;
59458;SDS011;45269;43.568;22.244;2023-08-21T04:17:09;22.85;;;15.98;;
59458;SDS011;45269;43.568;22.244;2023-08-21T04:19:34;15.57;;;14.05;;
59458;SDS011;45269;43.568;22.244;2023-08-21T04:21:59;15.88;;;14.25;;
59458;SDS011;45269;43.568;22.244;2023-08-21T04:24:25;14.07;;;12.40;;
59458;SDS011;45269;43.568;22.244;2023-08-21T04:26:50;14.23;;;12.82;;
59458;SDS011;45269;43.568;22.244;2023-08-21T04:29:16;12.73;;;11.55;;
59458;SDS011;45269;43.568;22.244;2023-08-21T04:31:41;13.45;;;11.88;;
59458;SDS011;45269;43.568;22.244;2023-08-21T04:34:06;14.93;;;13.52;;
59458;SDS011;45269;43.568;22.244;2023-08-21T04:36:32;13.52;;;12.20;;
59458;SDS011;45269;43.568;22.244;2023-08-21T04:38:57;13.43;;;12.15;;
59458;SDS011;45269;43.568;22.244;2023-08-21T04:41:22;13.13;;;12.05;;
59458;SDS011;45269;43.568;22.244;2023-08-21T04:43:48;13.43;;;12.13;;
59458;SDS011;45269;43.568;22.244;2023-08-21T04:46:13;14.10;;;12.68;;
59458;SDS011;45269;43.568;22.244;2023-08-21T04:48:38;13.07;;;11.77;;
59458;SDS011;45269;43.568;22.244;2023-08-21T04:51:04;13.20;;;11.93;;
59458;SDS011;45269;43.568;22.244;2023-08-21T04:53:29;12.68;;;11.48;;
59458;SDS011;45269;43.568;22.244;2023-08-21T04:55:55;13.13;;;11.82;;
59458;SDS011;45269;43.568;22.244;2023-08-21T04:58:20;13.70;;;12.32;;
59458;SDS011;45269;43.568;22.244;2023-08-21T05:00:46;13.65;;;12.45;;
59458;SDS011;45269;43.568;22.244;2023-08-21T05:03:11;13.25;;;12.02;;
59458;SDS011;45269;43.568;22.244;2023-08-21T05:05:37;12.75;;;11.65;;
59458;SDS011;45269;43.568;22.244;2023-08-21T05:08:03;13.50;;;12.20;;
59458;SDS011;45269;43.568;22.244;2023-08-21T05:10:28;13.77;;;12.23;;
59458;SDS011;45269;43.568;22.244;2023-08-21T05:12:56;13.43;;;12.25;;
59458;SDS011;45269;43.568;22.244;2023-08-21T05:15:22;14.85;;;12.20;;
59458;SDS011;45269;43.568;22.244;2023-08-21T05:17:47;13.50;;;12.07;;
59458;SDS011;45269;43.568;22.244;2023-08-21T05:20:12;12.65;;;11.45;;
59458;SDS011;45269;43.568;22.244;2023-08-21T05:22:39;14.30;;;12.80;;
59458;SDS011;45269;43.568;22.244;2023-08-21T05:25:05;12.88;;;11.68;;
59458;SDS011;45269;43.568;22.244;2023-08-21T05:27:30;13.98;;;11.70;;
59458;SDS011;45269;43.568;22.244;2023-08-21T05:29:56;12.10;;;10.80;;
59458;SDS011;45269;43.568;22.244;2023-08-21T05:32:21;13.02;;;11.88;;
59458;SDS011;45269;43.568;22.244;2023-08-21T05:34:46;12.40;;;11.02;;
59458;SDS011;45269;43.568;22.244;2023-08-21T05:37:12;13.40;;;11.35;;
59458;SDS011;45269;43.568;22.244;2023-08-21T05:39:37;13.30;;;12.05;;
59458;SDS011;45269;43.568;22.244;2023-08-21T05:42:03;12.98;;;11.88;;
59458;SDS011;45269;43.568;22.244;2023-08-21T05:44:28;12.23;;;11.13;;
59458;SDS011;45269;43.568;22.244;2023-08-21T05:46:53;12.18;;;11.13;;
59458;SDS011;45269;43.568;22.244;2023-08-21T05:49:19;12.50;;;11.38;;
59458;SDS011;45269;43.568;22.244;2023-08-21T05:51:44;12.60;;;11.30;;
59458;SDS011;45269;43.568;22.244;2023-08-21T05:54:09;11.90;;;10.90;;
59458;SDS011;45269;43.568;22.244;2023-08-21T05:56:35;12.52;;;11.32;;
59458;SDS011;45269;43.568;22.244;2023-08-21T05:59:00;10.43;;;9.40;;
59458;SDS011;45269;43.568;22.244;2023-08-21T06:01:25;9.98;;;9.02;;
59458;SDS011;45269;43.568;22.244;2023-08-21T06:03:51;12.10;;;10.30;;
59458;SDS011;45269;43.568;22.244;2023-08-21T06:06:16;11.45;;;10.35;;
59458;SDS011;45269;43.568;22.244;2023-08-21T06:08:42;10.48;;;9.55;;
59458;SDS011;45269;43.568;22.244;2023-08-21T06:11:07;11.02;;;10.02;;
59458;SDS011;45269;43.568;22.244;2023-08-21T06:13:32;10.60;;;9.52;;
59458;SDS011;45269;43.568;22.244;2023-08-21T06:15:58;10.52;;;9.63;;
59458;SDS011;45269;43.568;22.244;2023-08-21T06:18:23;10.95;;;10.05;;
59458;SDS011;45269;43.568;22.244;2023-08-21T06:20:48;11.93;;;10.93;;
59458;SDS011;45269;43.568;22.244;2023-08-21T06:23:18;10.80;;;9.68;;
59458;SDS011;45269;43.568;22.244;2023-08-21T06:25:43;11.52;;;10.45;;
59458;SDS011;45269;43.568;22.244;2023-08-21T06:28:09;10.85;;;9.88;;
59458;SDS011;45269;43.568;22.244;2023-08-21T06:30:34;10.88;;;9.60;;
59458;SDS011;45269;43.568;22.244;2023-08-21T06:33:00;11.32;;;10.40;;
59458;SDS011;45269;43.568;22.244;2023-08-21T06:35:25;11.93;;;9.18;;
59458;SDS011;45269;43.568;22.244;2023-08-21T06:37:50;10.25;;;9.13;;
59458;SDS011;45269;43.568;22.244;2023-08-21T06:40:17;10.07;;;8.95;;
59458;SDS011;45269;43.568;22.244;2023-08-21T06:42:42;9.55;;;8.65;;
59458;SDS011;45269;43.568;22.244;2023-08-21T06:45:08;9.85;;;8.93;;
59458;SDS011;45269;43.568;22.244;2023-08-21T06:47:33;9.48;;;8.07;;
59458;SDS011;45269;43.568;22.244;2023-08-21T06:49:58;9.93;;;8.88;;
59458;SDS011;45269;43.568;22.244;2023-08-21T06:52:25;9.30;;;8.43;;
59458;SDS011;45269;43.568;22.244;2023-08-21T06:54:51;8.75;;;7.95;;
59458;SDS011;45269;43.568;22.244;2023-08-21T06:57:16;8.82;;;7.93;;
59458;SDS011;45269;43.568;22.244;2023-08-21T06:59:41;9.45;;;8.50;;
59458;SDS011;45269;43.568;22.244;2023-08-21T07:02:07;10.60;;;8.98;;
59458;SDS011;45269;43.568;22.244;2023-08-21T07:04:32;13.05;;;9.05;;
59458;SDS011;45269;43.568;22.244;2023-08-21T07:07:00;10.77;;;9.40;;
59458;SDS011;45269;43.568;22.244;2023-08-21T07:09:26;11.25;;;8.05;;
59458;SDS011;45269;43.568;22.244;2023-08-21T07:11:51;9.73;;;8.52;;
59458;SDS011;45269;43.568;22.244;2023-08-21T07:14:16;8.98;;;7.60;;
59458;SDS011;45269;43.568;22.244;2023-08-21T07:16:42;11.07;;;8.00;;
59458;SDS011;45269;43.568;22.244;2023-08-21T07:19:07;8.85;;;7.95;;
59458;SDS011;45269;43.568;22.244;2023-08-21T07:21:33;17.17;;;7.85;;
59458;SDS011;45269;43.568;22.244;2023-08-21T07:24:00;11.10;;;8.50;;
59458;SDS011;45269;43.568;22.244;2023-08-21T07:26:25;7.80;;;7.10;;
59458;SDS011;45269;43.568;22.244;2023-08-21T07:28:51;8.48;;;7.28;;
59458;SDS011;45269;43.568;22.244;2023-08-21T07:31:18;8.73;;;7.40;;
59458;SDS011;45269;43.568;22.244;2023-08-21T07:33:43;8.82;;;8.02;;
59458;SDS011;45269;43.568;22.244;2023-08-21T07:36:08;8.63;;;7.82;;
59458;SDS011;45269;43.568;22.244;2023-08-21T07:38:34;10.40;;;9.40;;
59458;SDS011;45269;43.568;22.244;2023-08-21T07:41:08;8.52;;;7.75;;
59458;SDS011;45269;43.568;22.244;2023-08-21T07:43:35;11.50;;;7.97;;
59458;SDS011;45269;43.568;22.244;2023-08-21T07:46:04;8.57;;;7.78;;
59458;SDS011;45269;43.568;22.244;2023-08-21T07:50:55;9.73;;;8.00;;
59458;SDS011;45269;43.568;22.244;2023-08-21T07:53:21;9.88;;;7.75;;
59458;SDS011;45269;43.568;22.244;2023-08-21T07:55:46;8.98;;;8.27;;
59458;SDS011;45269;43.568;22.244;2023-08-21T07:58:12;10.32;;;8.60;;
59458;SDS011;45269;43.568;22.244;2023-08-21T08:00:38;8.95;;;8.10;;
59458;SDS011;45269;43.568;22.244;2023-08-21T08:03:04;9.30;;;8.38;;
59458;SDS011;45269;43.568;22.244;2023-08-21T08:05:29;8.85;;;8.05;;
59458;SDS011;45269;43.568;22.244;2023-08-21T08:07:54;10.77;;;8.02;;
59458;SDS011;45269;43.568;22.244;2023-08-21T08:10:20;12.90;;;8.38;;
59458;SDS011;45269;43.568;22.244;2023-08-21T08:12:45;10.23;;;8.70;;
59458;SDS011;45269;43.568;22.244;2023-08-21T08:15:10;8.70;;;7.90;;
59458;SDS011;45269;43.568;22.244;2023-08-21T08:17:36;9.13;;;8.23;;
59458;SDS011;45269;43.568;22.244;2023-08-21T08:20:01;8.70;;;7.75;;
59458;SDS011;45269;43.568;22.244;2023-08-21T08:22:26;9.40;;;8.43;;
59458;SDS011;45269;43.568;22.244;2023-08-21T08:24:52;8.52;;;7.63;;
59458;SDS011;45269;43.568;22.244;2023-08-21T08:27:17;8.48;;;7.55;;
59458;SDS011;45269;43.568;22.244;2023-08-21T08:29:43;9.73;;;7.93;;
59458;SDS011;45269;43.568;22.244;2023-08-21T08:32:08;8.30;;;7.55;;
59458;SDS011;45269;43.568;22.244;2023-08-21T08:34:33;8.13;;;7.28;;
59458;SDS011;45269;43.568;22.244;2023-08-21T08:36:59;10.18;;;7.40;;
59458;SDS011;45269;43.568;22.244;2023-08-21T08:39:24;8.35;;;7.72;;
59458;SDS011;45269;43.568;22.244;2023-08-21T08:41:54;8.45;;;7.07;;
59458;SDS011;45269;43.568;22.244;2023-08-21T08:44:21;8.15;;;7.45;;
59458;SDS011;45269;43.568;22.244;2023-08-21T08:46:49;7.75;;;6.95;;
59458;SDS011;45269;43.568;22.244;2023-08-21T08:49:16;8.07;;;7.35;;
59458;SDS011;45269;43.568;22.244;2023-08-21T08:51:41;8.90;;;7.85;;
59458;SDS011;45269;43.568;22.244;2023-08-21T08:54:07;8.30;;;7.55;;
59458;SDS011;45269;43.568;22.244;2023-08-21T08:56:33;8.40;;;7.70;;
59458;SDS011;45269;43.568;22.244;2023-08-21T08:58:58;8.07;;;7.07;;
59458;SDS011;45269;43.568;22.244;2023-08-21T09:01:23;8.15;;;7.13;;
59458;SDS011;45269;43.568;22.244;2023-08-21T09:03:49;8.18;;;7.40;;
59458;SDS011;45269;43.568;22.244;2023-08-21T09:06:15;9.63;;;6.85;;
59458;SDS011;45269;43.568;22.244;2023-08-21T09:08:45;7.95;;;7.10;;
59458;SDS011;45269;43.568;22.244;2023-08-21T09:11:18;8.30;;;7.55;;
59458;SDS011;45269;43.568;22.244;2023-08-21T09:13:43;7.63;;;7.03;;
59458;SDS011;45269;43.568;22.244;2023-08-21T09:16:08;8.68;;;7.30;;
59458;SDS011;45269;43.568;22.244;2023-08-21T09:18:34;7.70;;;7.13;;
59458;SDS011;45269;43.568;22.244;2023-08-21T09:21:01;7.60;;;6.80;;
59458;SDS011;45269;43.568;22.244;2023-08-21T09:23:27;7.47;;;6.88;;
59458;SDS011;45269;43.568;22.244;2023-08-21T09:25:53;7.75;;;6.57;;
59458;SDS011;45269;43.568;22.244;2023-08-21T09:28:19;7.55;;;6.90;;
59458;SDS011;45269;43.568;22.244;2023-08-21T09:33:16;7.43;;;6.72;;
59458;SDS011;45269;43.568;22.244;2023-08-21T09:35:42;8.00;;;6.63;;
59458;SDS011;45269;43.568;22.244;2023-08-21T09:38:07;7.78;;;6.80;;
59458;SDS011;45269;43.568;22.244;2023-08-21T09:40:33;7.55;;;6.50;;
59458;SDS011;45269;43.568;22.244;2023-08-21T09:42:58;8.55;;;6.45;;
59458;SDS011;45269;43.568;22.244;2023-08-21T09:45:24;7.20;;;6.60;;
59458;SDS011;45269;43.568;22.244;2023-08-21T09:47:51;8.95;;;6.30;;
59458;SDS011;45269;43.568;22.244;2023-08-21T09:50:17;7.95;;;7.00;;
59458;SDS011;45269;43.568;22.244;2023-08-21T09:52:43;7.65;;;6.43;;
59458;SDS011;45269;43.568;22.244;2023-08-21T09:55:08;7.03;;;6.28;;
59458;SDS011;45269;43.568;22.244;2023-08-21T09:57:35;7.93;;;6.82;;
59458;SDS011;45269;43.568;22.244;2023-08-21T10:00:01;8.13;;;6.82;;
59458;SDS011;45269;43.568;22.244;2023-08-21T10:02:31;7.03;;;6.32;;
59458;SDS011;45269;43.568;22.244;2023-08-21T10:04:56;6.90;;;6.30;;
59458;SDS011;45269;43.568;22.244;2023-08-21T10:07:23;7.72;;;7.05;;
59458;SDS011;45269;43.568;22.244;2023-08-21T10:09:49;9.07;;;6.18;;
59458;SDS011;45269;43.568;22.244;2023-08-21T10:12:15;8.07;;;6.38;;
59458;SDS011;45269;43.568;22.244;2023-08-21T10:14:41;8.23;;;6.35;;
59458;SDS011;45269;43.568;22.244;2023-08-21T10:17:07;8.95;;;6.30;;
59458;SDS011;45269;43.568;22.244;2023-08-21T10:19:33;7.18;;;6.57;;
59458;SDS011;45269;43.568;22.244;2023-08-21T10:21:59;19.33;;;6.10;;
59458;SDS011;45269;43.568;22.244;2023-08-21T10:24:43;6.88;;;6.25;;
59458;SDS011;45269;43.568;22.244;2023-08-21T10:27:10;7.45;;;6.22;;
59458;SDS011;45269;43.568;22.244;2023-08-21T10:29:36;7.10;;;6.50;;
59458;SDS011;45269;43.568;22.244;2023-08-21T10:32:04;6.90;;;6.18;;
59458;SDS011;45269;43.568;22.244;2023-08-21T10:34:33;8.35;;;7.05;;
59458;SDS011;45269;43.568;22.244;2023-08-21T10:39:24;7.67;;;7.10;;
59458;SDS011;45269;43.568;22.244;2023-08-21T10:41:57;7.20;;;6.65;;
59458;SDS011;45269;43.568;22.244;2023-08-21T10:44:36;7.05;;;6.55;;
59458;SDS011;45269;43.568;22.244;2023-08-21T10:49:46;7.60;;;6.90;;
59458;SDS011;45269;43.568;22.244;2023-08-21T10:52:13;7.63;;;6.80;;
59458;SDS011;45269;43.568;22.244;2023-08-21T10:54:42;7.30;;;6.63;;
59458;SDS011;45269;43.568;22.244;2023-08-21T10:57:08;7.60;;;6.65;;
59458;SDS011;45269;43.568;22.244;2023-08-21T10:59:33;11.02;;;6.75;;
59458;SDS011;45269;43.568;22.244;2023-08-21T11:01:58;7.97;;;7.38;;
59458;SDS011;45269;43.568;22.244;2023-08-21T11:04:24;7.43;;;6.82;;
59458;SDS011;45269;43.568;22.244;2023-08-21T11:06:51;9.63;;;6.75;;
59458;SDS011;45269;43.568;22.244;2023-08-21T11:09:16;7.88;;;7.30;;
59458;SDS011;45269;43.568;22.244;2023-08-21T11:11:43;9.90;;;9.00;;
59458;SDS011;45269;43.568;22.244;2023-08-21T11:14:08;7.60;;;6.95;;
59458;SDS011;45269;43.568;22.244;2023-08-21T11:16:33;8.45;;;6.63;;
59458;SDS011;45269;43.568;22.244;2023-08-21T11:19:03;9.93;;;7.43;;
59458;SDS011;45269;43.568;22.244;2023-08-21T11:21:28;6.95;;;6.25;;
59458;SDS011;45269;43.568;22.244;2023-08-21T11:23:53;7.65;;;6.95;;
59458;SDS011;45269;43.568;22.244;2023-08-21T11:26:20;7.18;;;6.47;;
59458;SDS011;45269;43.568;22.244;2023-08-21T11:28:46;7.20;;;6.38;;
59458;SDS011;45269;43.568;22.244;2023-08-21T11:31:11;7.03;;;6.40;;
59458;SDS011;45269;43.568;22.244;2023-08-21T11:33:37;7.90;;;6.47;;
59458;SDS011;45269;43.568;22.244;2023-08-21T11:36:04;7.32;;;6.63;;
59458;SDS011;45269;43.568;22.244;2023-08-21T11:38:29;6.55;;;6.03;;
59458;SDS011;45269;43.568;22.244;2023-08-21T11:40:59;7.15;;;6.50;;
59458;SDS011;45269;43.568;22.244;2023-08-21T11:43:41;10.15;;;6.88;;
59458;SDS011;45269;43.568;22.244;2023-08-21T11:46:07;7.25;;;6.55;;
59458;SDS011;45269;43.568;22.244;2023-08-21T11:48:33;7.00;;;6.40;;
59458;SDS011;45269;43.568;22.244;2023-08-21T11:50:58;7.07;;;6.47;;
59458;SDS011;45269;43.568;22.244;2023-08-21T11:53:57;7.28;;;6.30;;
59458;SDS011;45269;43.568;22.244;2023-08-21T11:56:16;6.90;;;6.10;;
59458;SDS011;45269;43.568;22.244;2023-08-21T11:58:42;16.33;;;14.57;;
59458;SDS011;45269;43.568;22.244;2023-08-21T12:01:08;10.85;;;7.30;;
59458;SDS011;45269;43.568;22.244;2023-08-21T12:03:35;10.10;;;6.72;;
59458;SDS011;45269;43.568;22.244;2023-08-21T12:06:03;7.32;;;6.13;;
59458;SDS011;45269;43.568;22.244;2023-08-21T12:08:29;8.60;;;7.70;;
59458;SDS011;45269;43.568;22.244;2023-08-21T12:10:54;11.73;;;7.95;;
59458;SDS011;45269;43.568;22.244;2023-08-21T12:13:19;8.65;;;7.78;;
59458;SDS011;45269;43.568;22.244;2023-08-21T12:15:45;8.50;;;7.63;;
59458;SDS011;45269;43.568;22.244;2023-08-21T12:18:10;9.43;;;8.20;;
59458;SDS011;45269;43.568;22.244;2023-08-21T12:20:35;8.38;;;7.57;;
59458;SDS011;45269;43.568;22.244;2023-08-21T12:23:01;10.98;;;8.93;;
59458;SDS011;45269;43.568;22.244;2023-08-21T12:25:26;9.90;;;8.90;;
59458;SDS011;45269;43.568;22.244;2023-08-21T12:27:52;8.57;;;7.78;;
59458;SDS011;45269;43.568;22.244;2023-08-21T12:30:17;12.50;;;8.70;;
59458;SDS011;45269;43.568;22.244;2023-08-21T12:32:42;12.52;;;8.20;;
59458;SDS011;45269;43.568;22.244;2023-08-21T12:35:08;13.27;;;8.50;;
59458;SDS011;45269;43.568;22.244;2023-08-21T12:40:02;14.67;;;9.97;;
59458;SDS011;45269;43.568;22.244;2023-08-21T12:42:27;9.57;;;8.73;;
59458;SDS011;45269;43.568;22.244;2023-08-21T12:44:53;11.80;;;8.55;;
59458;SDS011;45269;43.568;22.244;2023-08-21T12:47:18;10.82;;;8.27;;
59458;SDS011;45269;43.568;22.244;2023-08-21T12:49:43;9.57;;;8.57;;
59458;SDS011;45269;43.568;22.244;2023-08-21T12:52:09;10.77;;;9.68;;
59458;SDS011;45269;43.568;22.244;2023-08-21T12:54:34;11.02;;;9.93;;
59458;SDS011;45269;43.568;22.244;2023-08-21T12:56:59;13.80;;;9.82;;
59458;SDS011;45269;43.568;22.244;2023-08-21T12:59:25;10.52;;;9.52;;
59458;SDS011;45269;43.568;22.244;2023-08-21T13:01:50;11.43;;;9.45;;
59458;SDS011;45269;43.568;22.244;2023-08-21T13:04:15;12.43;;;9.95;;
59458;SDS011;45269;43.568;22.244;2023-08-21T13:06:41;11.85;;;9.98;;
59458;SDS011;45269;43.568;22.244;2023-08-21T13:09:07;11.55;;;9.10;;
59458;SDS011;45269;43.568;22.244;2023-08-21T13:11:32;9.68;;;8.57;;
59458;SDS011;45269;43.568;22.244;2023-08-21T13:13:58;11.90;;;9.70;;
59458;SDS011;45269;43.568;22.244;2023-08-21T13:16:23;10.40;;;8.63;;
59458;SDS011;45269;43.568;22.244;2023-08-21T13:18:48;9.50;;;8.80;;
59458;SDS011;45269;43.568;22.244;2023-08-21T13:21:14;14.07;;;10.20;;
59458;SDS011;45269;43.568;22.244;2023-08-21T13:23:39;10.20;;;9.20;;
59458;SDS011;45269;43.568;22.244;2023-08-21T13:26:04;8.77;;;7.97;;
59458;SDS011;45269;43.568;22.244;2023-08-21T13:28:30;12.10;;;8.27;;
59458;SDS011;45269;43.568;22.244;2023-08-21T13:30:56;13.35;;;12.07;;
59458;SDS011;45269;43.568;22.244;2023-08-21T13:33:21;10.25;;;9.25;;
59458;SDS011;45269;43.568;22.244;2023-08-21T13:35:47;11.02;;;8.75;;
59458;SDS011;45269;43.568;22.244;2023-08-21T13:38:12;10.77;;;8.68;;
59458;SDS011;45269;43.568;22.244;2023-08-21T13:40:38;9.98;;;8.93;;
59458;SDS011;45269;43.568;22.244;2023-08-21T13:43:04;10.23;;;9.23;;
59458;SDS011;45269;43.568;22.244;2023-08-21T13:45:29;9.32;;;8.38;;
59458;SDS011;45269;43.568;22.244;2023-08-21T13:47:55;10.68;;;8.60;;
59458;SDS011;45269;43.568;22.244;2023-08-21T13:50:20;9.10;;;8.27;;
59458;SDS011;45269;43.568;22.244;2023-08-21T13:52:46;8.90;;;8.13;;
59458;SDS011;45269;43.568;22.244;2023-08-21T13:55:12;8.85;;;8.05;;
59458;SDS011;45269;43.568;22.244;2023-08-21T13:57:37;9.60;;;7.85;;
59458;SDS011;45269;43.568;22.244;2023-08-21T14:00:04;9.88;;;8.48;;
59458;SDS011;45269;43.568;22.244;2023-08-21T14:04:58;9.25;;;8.35;;
59458;SDS011;45269;43.568;22.244;2023-08-21T14:07:23;9.43;;;8.52;;
59458;SDS011;45269;43.568;22.244;2023-08-21T14:09:48;9.30;;;8.40;;
59458;SDS011;45269;43.568;22.244;2023-08-21T14:12:14;9.70;;;8.52;;
59458;SDS011;45269;43.568;22.244;2023-08-21T14:14:39;10.27;;;8.98;;
59458;SDS011;45269;43.568;22.244;2023-08-21T14:17:05;9.45;;;8.45;;
59458;SDS011;45269;43.568;22.244;2023-08-21T14:19:30;9.07;;;8.18;;
59458;SDS011;45269;43.568;22.244;2023-08-21T14:21:57;9.50;;;8.55;;
59458;SDS011;45269;43.568;22.244;2023-08-21T14:24:22;9.85;;;8.98;;
59458;SDS011;45269;43.568;22.244;2023-08-21T14:26:48;9.80;;;8.48;;
59458;SDS011;45269;43.568;22.244;2023-08-21T14:29:13;10.07;;;8.98;;
59458;SDS011;45269;43.568;22.244;2023-08-21T14:31:38;11.30;;;9.38;;
59458;SDS011;45269;43.568;22.244;2023-08-21T14:34:04;11.15;;;8.38;;
59458;SDS011;45269;43.568;22.244;2023-08-21T14:36:29;10.07;;;9.00;;
59458;SDS011;45269;43.568;22.244;2023-08-21T14:38:54;15.90;;;11.02;;